Chitose, Japan

11:53 AM JST on January 30, 2015 (GMT +0900)
New Chitose | Change Station
CLOSE
Current Station
Airport
Location: Chitose AB,
Elevation: 98 ft
Nearby Weather Stations

Elev 98 ft 42.77 °N, 141.69 °E | Updated 23 minutes ago

Light Snow Showers
Light Showers Snow
30 °F
Feels Like 19 °F
N
15
Wind Variable Wind from SE

Today
High -- | Low -- °F
--% Chance of Precip.
Yesterday
High -- | Low -- °F
Precip. -- in
6:50 AM 4:42 PM
Waxing Gibbous, 79% visible
Pressure 30.15 in
Visibility 6.2 miles
Clouds Few 1000 ft
Scattered Clouds 1500 ft
Mostly Cloudy 2500 ft
Windchill 19 °F
Dew Point 25 °F
Humidity 80%
Rainfall 0.00 in
Snow Depth Not available.
UV 1 out of 12
Pollen Not available.
Air Quality Not available.
Flu Activity Not available.
METAR RJCC 300230Z 14013KT 9999 -SHSN FEW010 SCT015 BKN025 M01/M04 Q1021 RMK 1ST010 4ST015 7CU025 A3016

More Conditions Fewer Conditions

Pressure 30.15 in
Visibility 6.2 miles
Clouds Few 1000 ft
Scattered Clouds 1500 ft
Mostly Cloudy 2500 ft
Windchill 19 °F
Dew Point 25 °F
Humidity 80%
Rainfall 0.00 in
Snow Depth Not available.
UV 1 out of 12
Pollen Not available.
Air Quality Not available.
Flu Activity Not available.
METAR RJCC 300230Z 14013KT 9999 -SHSN FEW010 SCT015 BKN025 M01/M04 Q1021 RMK 1ST010 4ST015 7CU025 A3016

More Conditions Fewer Conditions

10-Day Weather Forecast

Almanac

Astronomy

Jan. 30, 2015 Rise Set
Actual Time
Civil Twilight
Nautical Twilight
Astronomical Twilight
Moon
Length of Visible Light
Length of Day
Tomorrow will be .
, % of the Moon is Illuminated

Today's Extremes

Country Highs Country Lows

Community

WunderPhotos

Upload Photos

1,791,702 photos uploaded!

WunderBlogs® & News

Nearby

Air Quality

  Air Quality AQ Index Pollutant
Not available.

Snow Depth

Station Depth Elevation

Earthquake Activity

City Distance Mag. Time & Date
Minimum magnitude displayed is 2.5.

Coastal Water Temperatures

Place Temperature

Nearby Weather Stations